Time;durP1;ratioP1;P1;durP2;ratioP2;P2;SDS_P1;SDS_P2;PMS_P1;PMS_P2;Temp;Humidity;BMP_temperature;BMP_pressure;BME280_temperature;BME280_humidity;BME280_pressure;Samples;Min_cycle;Max_cycle;Signal;HPM_P1;HPM_P2
2021/10/13 00:01:02;;;;;;;26.00;19.95;;;256.60;2252.80;;;;;;5071742;28;20074;-81
2021/10/13 00:03:28;;;;;;;28.05;19.25;;;256.70;2252.80;;;;;;5071590;28;20426;-80
2021/10/13 00:05:53;;;;;;;26.23;19.52;;;256.60;2252.80;;;;;;5071446;28;20078;-84
2021/10/13 00:08:19;;;;;;;22.48;16.92;;;256.50;2252.80;;;;;;5072234;28;20100;-81
2021/10/13 00:10:46;;;;;;;27.08;18.45;;;256.50;2252.80;;;;;;5072211;28;20056;-83
2021/10/13 00:13:12;;;;;;;27.80;19.17;;;256.50;2252.80;;;;;;5054127;28;20372;-81
2021/10/13 00:15:38;;;;;;;21.70;16.77;;;256.50;2252.80;;;;;;5071689;28;20040;-80
2021/10/13 00:18:04;;;;;;;25.40;18.25;;;256.50;2252.80;;;;;;5053882;28;20035;-78
2021/10/13 00:20:30;;;;;;;24.38;18.00;;;256.50;2252.80;;;;;;5072161;28;20013;-79
2021/10/13 00:27:14;;;;;;;32.53;19.70;;;256.50;2252.80;;;;;;5067376;28;20024;-81
2021/10/13 00:29:40;;;;;;;22.27;17.08;;;256.50;2252.80;;;;;;5045030;28;20028;-79
2021/10/13 00:32:06;;;;;;;23.23;16.52;;;256.50;2252.80;;;;;;5071315;28;20021;-79
2021/10/13 00:34:32;;;;;;;23.27;17.23;;;256.40;2252.80;;;;;;5072255;28;20936;-79
2021/10/13 00:36:58;;;;;;;27.92;18.42;;;256.20;2252.80;;;;;;5056074;28;20499;-79
2021/10/13 00:39:24;;;;;;;27.00;17.52;;;256.40;2252.80;;;;;;5055672;28;20058;-78
2021/10/13 00:41:50;;;;;;;25.02;17.42;;;256.40;2252.80;;;;;;5073840;28;20534;-77
2021/10/13 00:44:16;;;;;;;23.52;16.40;;;256.40;2252.80;;;;;;5055674;28;20029;-79
2021/10/13 00:46:42;;;;;;;24.15;16.35;;;256.30;2252.80;;;;;;5057363;28;20028;-80
2021/10/13 00:49:08;;;;;;;21.27;16.58;;;256.30;2252.80;;;;;;5066624;28;20471;-82
2021/10/13 00:51:34;;;;;;;26.63;17.70;;;256.30;2252.80;;;;;;5072209;28;20020;-79
2021/10/13 00:54:00;;;;;;;32.97;18.95;;;256.30;2252.80;;;;;;5056651;28;20527;-79
2021/10/13 00:56:26;;;;;;;20.42;15.50;;;256.20;2252.80;;;;;;5053870;28;20070;-80
2021/10/13 00:58:53;;;;;;;22.77;15.93;;;256.30;2252.80;;;;;;5057408;28;20123;-78
2021/10/13 01:01:25;;;;;;;21.42;15.57;;;256.30;2252.80;;;;;;5056105;28;20028;-77
2021/10/13 01:04:09;;;;;;;24.52;16.38;;;256.20;2252.80;;;;;;5073364;28;20020;-78
2021/10/13 01:06:41;;;;;;;25.33;16.35;;;256.20;2252.80;;;;;;5055682;28;20032;-79
2021/10/13 01:09:16;;;;;;;22.52;16.02;;;256.20;2252.80;;;;;;5069572;28;20437;-78
2021/10/13 01:12:17;;;;;;;22.23;16.80;;;256.20;2252.80;;;;;;5079326;28;20052;-79
2021/10/13 01:17:37;;;;;;;25.13;16.23;;;256.10;2252.80;;;;;;5072238;28;20131;-81
2021/10/13 01:20:22;;;;;;;20.40;15.15;;;256.10;2252.80;;;;;;5063244;28;20483;-80
2021/10/13 01:23:03;;;;;;;23.00;15.85;;;256.10;2252.80;;;;;;5053022;28;20056;-78
2021/10/13 01:25:47;;;;;;;22.52;16.27;;;256.10;2252.80;;;;;;5071291;28;20464;-79
2021/10/13 01:28:18;;;;;;;21.90;15.95;;;256.10;2252.80;;;;;;5057609;28;20036;-79
2021/10/13 01:30:51;;;;;;;24.30;16.17;;;256.10;2252.80;;;;;;5057815;28;20033;-81
2021/10/13 01:33:24;;;;;;;27.08;17.27;;;256.10;2252.80;;;;;;5075800;28;20017;-80
2021/10/13 01:35:53;;;;;;;22.38;15.88;;;256.00;2252.80;;;;;;5065086;28;20026;-77
2021/10/13 01:38:24;;;;;;;21.88;15.98;;;256.00;2252.80;;;;;;5075801;28;20024;-78
2021/10/13 01:40:53;;;;;;;24.63;16.23;;;256.00;2252.80;;;;;;5057426;28;20430;-77
2021/10/13 01:43:21;;;;;;;23.77;15.60;;;256.00;2252.80;;;;;;5070761;28;20112;-77
2021/10/13 01:45:50;;;;;;;21.80;16.15;;;256.10;2252.80;;;;;;5057386;28;20021;-77
2021/10/13 01:48:17;;;;;;;23.73;15.80;;;256.00;2252.80;;;;;;5075010;28;20484;-79
2021/10/13 01:50:46;;;;;;;23.50;15.98;;;256.00;2252.80;;;;;;5061608;28;20475;-79
2021/10/13 01:53:14;;;;;;;25.23;14.77;;;256.00;2252.80;;;;;;5057261;28;20031;-79
2021/10/13 01:55:43;;;;;;;20.98;15.65;;;231.30;2252.80;;;;;;5081272;28;20372;-80
2021/10/13 01:58:10;;;;;;;24.80;15.93;;;231.30;2252.80;;;;;;5064667;28;20024;-78
2021/10/13 02:00:36;;;;;;;37.08;16.25;;;231.30;2252.80;;;;;;5057529;28;20085;-78
2021/10/13 02:03:06;;;;;;;25.98;17.33;;;231.30;2252.80;;;;;;5075140;28;20028;-79
2021/10/13 02:05:35;;;;;;;24.27;16.95;;;231.10;2252.80;;;;;;5057204;28;20025;-79
2021/10/13 02:08:02;;;;;;;28.30;17.63;;;231.00;2252.80;;;;;;5063023;28;20020;-78
2021/10/13 02:10:30;;;;;;;24.27;16.70;;;231.00;2252.80;;;;;;5074753;28;20020;-79
2021/10/13 02:12:59;;;;;;;25.67;17.65;;;230.90;2252.80;;;;;;5075280;28;20027;-78
2021/10/13 02:15:27;;;;;;;27.55;15.75;;;230.80;2252.80;;;;;;5074719;28;20121;-81
2021/10/13 02:17:55;;;;;;;23.10;16.42;;;230.70;2252.80;;;;;;5061234;28;20024;-80
2021/10/13 02:20:22;;;;;;;22.75;16.75;;;230.70;2252.80;;;;;;5066090;28;20021;-80
2021/10/13 02:22:53;;;;;;;25.45;15.32;;;230.70;2252.80;;;;;;5057209;28;20418;-80
2021/10/13 02:25:19;;;;;;;27.95;16.73;;;230.70;2252.80;;;;;;5075033;28;20027;-81
2021/10/13 02:27:53;;;;;;;24.35;16.52;;;230.50;2252.80;;;;;;5070671;28;20032;-79
2021/10/13 02:30:19;;;;;;;23.13;15.38;;;230.50;2252.80;;;;;;5056966;28;20048;-80
2021/10/13 02:32:45;;;;;;;23.88;16.58;;;230.50;2252.80;;;;;;5057974;28;20432;-79
2021/10/13 02:35:10;;;;;;;19.70;15.60;;;230.50;2252.80;;;;;;5061160;28;20395;-79
2021/10/13 02:37:36;;;;;;;22.08;16.92;;;230.40;2252.80;;;;;;5056288;28;20367;-77
2021/10/13 02:40:04;;;;;;;21.00;16.75;;;205.70;2252.80;;;;;;5057092;28;20051;-77
2021/10/13 02:42:30;;;;;;;23.02;17.30;;;205.70;2252.80;;;;;;5074625;28;20023;-78
2021/10/13 02:44:55;;;;;;;25.20;17.65;;;230.40;2252.80;;;;;;5074288;28;20013;-79
2021/10/13 02:47:28;;;;;;;25.35;16.40;;;230.40;2252.80;;;;;;5074704;28;20078;-79
2021/10/13 02:50:10;;;;;;;22.13;16.00;;;230.40;2252.80;;;;;;5071099;28;20103;-79
2021/10/13 02:52:39;;;;;;;23.08;16.25;;;230.40;2252.80;;;;;;5074571;28;20050;-79
2021/10/13 02:55:47;;;;;;;22.77;15.45;;;230.40;2252.80;;;;;;5070552;28;20031;-79
2021/10/13 02:58:32;;;;;;;21.83;15.13;;;205.70;2252.80;;;;;;5009814;28;20037;-79
2021/10/13 03:01:01;;;;;;;23.75;16.23;;;205.70;2252.80;;;;;;5021999;28;20036;-79
2021/10/13 03:03:35;;;;;;;23.65;15.13;;;205.60;2252.80;;;;;;5031131;28;20029;-78
2021/10/13 03:06:04;;;;;;;23.40;16.73;;;205.60;2252.80;;;;;;5031848;28;20054;-79
2021/10/13 03:08:33;;;;;;;22.90;16.38;;;205.60;2252.80;;;;;;5030046;28;20104;-80
2021/10/13 03:11:02;;;;;;;24.67;16.77;;;205.60;2252.80;;;;;;5032104;28;20029;-79
2021/10/13 03:13:33;;;;;;;29.90;19.73;;;205.60;2252.80;;;;;;5031676;28;20041;-76
2021/10/13 03:16:02;;;;;;;31.08;17.90;;;205.60;2252.80;;;;;;5027486;28;20103;-76
2021/10/13 03:18:29;;;;;;;25.85;17.42;;;205.60;2252.80;;;;;;5031825;28;20159;-77
2021/10/13 03:20:55;;;;;;;32.83;21.15;;;205.50;2252.80;;;;;;5004835;28;20091;-76
2021/10/13 03:23:22;;;;;;;25.15;19.15;;;205.50;2252.80;;;;;;5031620;28;20088;-76
2021/10/13 03:25:51;;;;;;;28.05;18.70;;;205.50;2252.80;;;;;;5017564;28;20056;-76
2021/10/13 03:28:17;;;;;;;26.63;19.02;;;205.50;2252.80;;;;;;5014944;28;20052;-76
2021/10/13 03:30:44;;;;;;;27.05;18.33;;;205.60;2252.80;;;;;;5011516;28;20112;-79
2021/10/13 03:33:11;;;;;;;28.55;18.08;;;205.40;2252.80;;;;;;5031957;28;20032;-82
2021/10/13 03:35:37;;;;;;;24.45;18.20;;;205.50;2252.80;;;;;;5079480;28;20081;-80
2021/10/13 03:38:04;;;;;;;30.40;19.20;;;205.40;2252.80;;;;;;5082554;28;20077;-80
2021/10/13 03:40:32;;;;;;;25.90;17.23;;;205.30;2252.80;;;;;;5062831;28;20112;-79
2021/10/13 03:42:57;;;;;;;26.50;18.60;;;205.30;2252.80;;;;;;5073745;28;20028;-80
2021/10/13 03:45:24;;;;;;;26.38;18.95;;;205.20;2252.80;;;;;;5074377;28;20444;-77
2021/10/13 03:47:51;;;;;;;25.27;18.23;;;205.30;2252.80;;;;;;5084553;28;20071;-79
2021/10/13 03:50:19;;;;;;;24.67;17.13;;;205.20;2252.80;;;;;;5075806;28;20051;-81
2021/10/13 03:52:45;;;;;;;32.00;17.83;;;205.20;2252.80;;;;;;5062165;28;20086;-81
2021/10/13 03:55:14;;;;;;;25.10;18.10;;;205.10;2252.80;;;;;;5072301;28;20028;-82
2021/10/13 03:57:40;;;;;;;30.38;19.33;;;205.20;2252.80;;;;;;5052201;28;20071;-80
2021/10/13 04:00:09;;;;;;;28.02;17.83;;;205.00;2252.80;;;;;;5070782;28;20475;-80
2021/10/13 04:02:35;;;;;;;33.80;21.33;;;205.10;2252.80;;;;;;5074928;28;20075;-78
2021/10/13 04:05:01;;;;;;;35.38;23.02;;;205.00;2252.80;;;;;;5057589;28;20012;-79
2021/10/13 04:07:28;;;;;;;40.35;26.02;;;205.00;2252.80;;;;;;5065270;28;20028;-79
2021/10/13 04:09:53;;;;;;;43.05;26.85;;;205.00;2252.80;;;;;;5055493;28;20391;-79
2021/10/13 04:12:22;;;;;;;36.67;24.27;;;204.90;2252.80;;;;;;5055305;28;20031;-77
2021/10/13 04:14:49;;;;;;;35.70;23.40;;;204.90;2252.80;;;;;;5072780;28;20463;-79
2021/10/13 04:17:15;;;;;;;31.30;22.10;;;204.90;2252.80;;;;;;5054963;28;20117;-79
2021/10/13 04:19:41;;;;;;;29.08;21.80;;;204.80;2252.80;;;;;;5056847;28;20449;-78
2021/10/13 04:22:07;;;;;;;41.75;28.13;;;180.10;2252.80;;;;;;5053326;28;20476;-77
2021/10/13 04:24:32;;;;;;;44.20;29.67;;;180.10;2252.80;;;;;;5070822;28;20059;-78
2021/10/13 04:26:58;;;;;;;38.22;23.85;;;180.00;2252.80;;;;;;5055205;28;20817;-77
2021/10/13 04:29:24;;;;;;;39.45;23.77;;;180.10;2252.80;;;;;;5077189;28;20104;-77
2021/10/13 04:31:50;;;;;;;41.85;26.55;;;180.00;2252.80;;;;;;5077193;28;20021;-76
2021/10/13 04:34:15;;;;;;;42.85;27.30;;;179.90;2252.80;;;;;;5054457;28;20032;-77
2021/10/13 04:36:41;;;;;;;43.42;26.08;;;179.80;2252.80;;;;;;5050894;28;20059;-76
2021/10/13 04:39:07;;;;;;;36.90;24.75;;;179.80;2252.80;;;;;;5071526;28;20047;-77
2021/10/13 04:41:33;;;;;;;41.53;24.95;;;179.70;2252.80;;;;;;5075770;28;20028;-76
2021/10/13 04:43:59;;;;;;;39.85;23.30;;;179.70;2252.80;;;;;;5079419;28;20379;-76
2021/10/13 04:46:25;;;;;;;35.67;22.98;;;179.70;2252.80;;;;;;5074190;28;20040;-76
2021/10/13 04:48:52;;;;;;;31.15;20.90;;;179.70;2252.80;;;;;;5057822;28;20400;-76
2021/10/13 04:51:18;;;;;;;34.65;24.08;;;179.70;2252.80;;;;;;5072542;28;20399;-76
2021/10/13 04:53:44;;;;;;;30.83;23.45;;;179.70;2252.80;;;;;;5090739;28;20024;-76
2021/10/13 04:56:09;;;;;;;42.97;25.00;;;179.80;2252.80;;;;;;5054410;28;20064;-76
2021/10/13 04:58:35;;;;;;;39.03;25.73;;;179.70;2252.80;;;;;;5074612;28;20063;-78
2021/10/13 05:01:01;;;;;;;36.72;24.40;;;179.80;2252.80;;;;;;5070627;28;20012;-76
2021/10/13 05:03:27;;;;;;;44.05;27.98;;;179.70;2252.80;;;;;;5073736;28;20024;-78
2021/10/13 05:05:52;;;;;;;46.53;27.58;;;179.70;2252.80;;;;;;5058573;28;20017;-77
2021/10/13 05:08:19;;;;;;;47.15;28.10;;;179.60;2252.80;;;;;;5056917;28;20093;-77
2021/10/13 05:10:44;;;;;;;36.10;25.60;;;179.60;2252.80;;;;;;5056230;28;20040;-77
2021/10/13 05:13:10;;;;;;;38.67;24.55;;;179.70;2252.80;;;;;;5053349;28;20041;-77
2021/10/13 05:15:36;;;;;;;39.35;25.38;;;179.70;2252.80;;;;;;5075004;28;20048;-76
2021/10/13 05:18:02;;;;;;;39.05;25.02;;;179.70;2252.80;;;;;;5069163;28;20032;-75
2021/10/13 05:20:28;;;;;;;44.58;25.92;;;179.70;2252.80;;;;;;5051202;28;20475;-76
2021/10/13 05:22:53;;;;;;;40.63;27.23;;;179.60;2252.80;;;;;;5053259;28;20027;-76
2021/10/13 05:25:20;;;;;;;41.20;27.40;;;179.60;2252.80;;;;;;5054860;28;20463;-75
2021/10/13 05:27:46;;;;;;;39.97;26.70;;;179.70;2252.80;;;;;;5050733;28;20074;-75
2021/10/13 05:30:12;;;;;;;40.20;27.17;;;179.70;2252.80;;;;;;5067778;28;20040;-76
2021/10/13 05:32:38;;;;;;;42.50;27.48;;;179.70;2252.80;;;;;;5070011;28;20040;-76
2021/10/13 05:35:04;;;;;;;42.78;26.65;;;179.70;2252.80;;;;;;5070701;28;20037;-76
2021/10/13 05:37:30;;;;;;;41.78;26.48;;;179.80;2252.80;;;;;;5051008;28;20503;-75
2021/10/13 05:39:55;;;;;;;38.30;25.35;;;179.80;2252.80;;;;;;5075695;28;20121;-77
2021/10/13 05:42:21;;;;;;;37.15;25.05;;;179.90;2252.80;;;;;;5057420;28;20494;-77
2021/10/13 05:44:47;;;;;;;38.22;23.08;;;179.90;2252.80;;;;;;5073509;28;20486;-75
2021/10/13 05:47:12;;;;;;;34.72;22.00;;;179.90;2252.80;;;;;;5060431;28;20031;-75
2021/10/13 05:49:38;;;;;;;32.85;22.67;;;179.90;2252.80;;;;;;5074965;28;20033;-76
2021/10/13 05:52:05;;;;;;;31.50;21.23;;;180.00;2252.80;;;;;;5066087;28;20021;-75
2021/10/13 05:54:31;;;;;;;32.08;21.42;;;180.10;2252.80;;;;;;5043395;28;20033;-75
2021/10/13 05:56:57;;;;;;;34.28;21.63;;;204.80;2252.80;;;;;;5056745;28;20456;-76
2021/10/13 05:59:23;;;;;;;27.40;19.15;;;204.90;2252.80;;;;;;5050223;28;20032;-75
2021/10/13 06:01:48;;;;;;;40.00;24.15;;;205.10;2252.80;;;;;;5068710;28;20012;-76
2021/10/13 06:04:14;;;;;;;33.17;21.08;;;205.20;2252.80;;;;;;5053406;28;20028;-76
2021/10/13 06:06:40;;;;;;;34.72;22.45;;;205.20;2252.80;;;;;;5058208;28;20135;-75
2021/10/13 06:09:06;;;;;;;36.42;22.30;;;205.30;2252.80;;;;;;5052667;28;20021;-76
2021/10/13 06:11:35;;;;;;;29.05;19.40;;;205.40;2252.80;;;;;;5053027;28;20032;-75
2021/10/13 06:14:00;;;;;;;32.13;20.27;;;205.50;2252.80;;;;;;5076597;28;20028;-75
2021/10/13 06:16:26;;;;;;;27.10;19.45;;;205.50;2252.80;;;;;;5076074;28;20128;-76
2021/10/13 06:18:52;;;;;;;28.73;20.83;;;205.70;2252.80;;;;;;5058221;28;20118;-75
2021/10/13 06:21:20;;;;;;;24.90;18.40;;;230.40;2252.80;;;;;;5074274;28;20095;-75
2021/10/13 06:23:46;;;;;;;32.08;19.67;;;230.50;2252.80;;;;;;5052993;28;20128;-75
2021/10/13 06:26:14;;;;;;;26.40;18.13;;;230.60;2252.80;;;;;;5073863;28;20384;-76
2021/10/13 06:28:43;;;;;;;24.13;17.20;;;230.80;2252.80;;;;;;5074401;28;20101;-76
2021/10/13 06:31:09;;;;;;;27.90;18.45;;;230.80;2252.80;;;;;;5073025;28;20435;-75
2021/10/13 06:33:36;;;;;;;25.30;15.93;;;230.90;2252.80;;;;;;5074109;28;20071;-76
2021/10/13 06:36:07;;;;;;;21.10;15.65;;;230.80;2252.80;;;;;;5061649;28;20078;-76
2021/10/13 06:38:34;;;;;;;29.90;17.95;;;230.90;2252.80;;;;;;5064424;28;20078;-75
2021/10/13 06:41:00;;;;;;;23.67;16.00;;;231.00;2252.80;;;;;;5074650;28;20106;-77
2021/10/13 06:43:27;;;;;;;31.58;17.92;;;230.90;2252.80;;;;;;5073003;28;20020;-76
2021/10/13 06:45:54;;;;;;;22.60;16.25;;;231.10;2252.80;;;;;;5054216;28;20032;-75
2021/10/13 06:48:21;;;;;;;27.80;16.27;;;231.10;2252.80;;;;;;5077035;28;20093;-76
2021/10/13 06:50:47;;;;;;;24.10;17.63;;;231.20;2252.80;;;;;;5080759;28;20107;-76
2021/10/13 06:53:14;;;;;;;26.63;15.48;;;231.30;2252.80;;;;;;5080185;28;20429;-76
2021/10/13 06:55:42;;;;;;;20.10;15.32;;;231.30;2252.80;;;;;;5084432;28;20024;-76
2021/10/13 06:58:12;;;;;;;22.15;14.90;;;256.10;2252.80;;;;;;5083405;28;20487;-77
2021/10/13 07:00:38;;;;;;;27.38;16.35;;;256.20;2252.80;;;;;;5078896;28;20745;-76
2021/10/13 07:03:04;;;;;;;29.08;17.25;;;256.30;2252.80;;;;;;5066768;28;20063;-77
2021/10/13 07:05:29;;;;;;;30.58;17.05;;;256.50;2252.80;;;;;;5073679;28;20039;-78
2021/10/13 07:07:55;;;;;;;27.55;15.90;;;256.40;2252.80;;;;;;5072226;28;20036;-75
2021/10/13 07:10:21;;;;;;;23.83;15.65;;;256.40;2252.80;;;;;;5073581;28;20033;-78
2021/10/13 07:12:47;;;;;;;18.80;14.57;;;256.50;2252.80;;;;;;5057982;28;20029;-79
2021/10/13 07:15:14;;;;;;;24.02;16.30;;;256.70;2252.80;;;;;;5073479;28;20036;-77
2021/10/13 07:17:40;;;;;;;22.00;15.38;;;256.80;2252.80;;;;;;5059841;28;20052;-78
2021/10/13 07:20:07;;;;;;;28.52;15.50;;;281.60;2278.40;;;;;;5064717;28;20032;-76
2021/10/13 07:22:33;;;;;;;26.33;17.83;;;281.80;2278.40;;;;;;5057257;28;20020;-79
2021/10/13 07:25:00;;;;;;;25.08;17.75;;;282.00;2278.40;;;;;;5068539;28;20029;-77
2021/10/13 07:27:26;;;;;;;24.27;16.50;;;282.10;2278.40;;;;;;5052956;28;20368;-78
2021/10/13 07:30:00;;;;;;;29.17;15.80;;;282.30;2278.40;;;;;;5058725;28;20032;-79
2021/10/13 07:32:27;;;;;;;28.30;19.27;;;282.50;2278.40;;;;;;5055307;28;20062;-79
2021/10/13 07:34:53;;;;;;;31.58;20.90;;;307.20;2304.00;;;;;;5067395;28;20505;-76
2021/10/13 07:37:19;;;;;;;22.05;15.30;;;307.30;2304.00;;;;;;5083838;28;20032;-77
2021/10/13 07:39:45;;;;;;;20.05;15.23;;;307.50;2304.00;;;;;;5076053;28;20032;-78
2021/10/13 07:42:12;;;;;;;25.23;16.42;;;307.70;2304.00;;;;;;5074172;28;20029;-79
2021/10/13 07:44:38;;;;;;;28.17;16.35;;;307.70;2304.00;;;;;;5058508;28;20021;-78
2021/10/13 07:47:04;;;;;;;21.65;15.30;;;307.80;2304.00;;;;;;5072717;28;20524;-79
2021/10/13 07:49:29;;;;;;;23.85;16.20;;;308.10;2304.00;;;;;;5066500;28;20039;-79
2021/10/13 07:51:55;;;;;;;27.80;18.23;;;332.90;2329.60;;;;;;5057548;28;20037;-79
2021/10/13 07:54:21;;;;;;;32.28;16.40;;;332.90;2329.60;;;;;;5054344;28;20028;-79
2021/10/13 07:56:48;;;;;;;23.08;15.82;;;332.90;2329.60;;;;;;5074791;28;20024;-78
2021/10/13 07:59:14;;;;;;;20.90;16.00;;;333.00;2329.60;;;;;;5071732;28;20487;-77
2021/10/13 08:01:40;;;;;;;25.00;16.88;;;333.00;2329.60;;;;;;5079332;28;20523;-77
2021/10/13 08:04:06;;;;;;;22.63;15.57;;;333.10;2329.60;;;;;;5068985;28;20032;-77
2021/10/13 08:06:32;;;;;;;24.58;14.70;;;333.00;2329.60;;;;;;5063806;28;20052;-78
2021/10/13 08:08:58;;;;;;;22.33;15.07;;;333.20;2329.60;;;;;;5070081;28;20024;-78
2021/10/13 08:11:24;;;;;;;23.08;16.52;;;333.00;2329.60;;;;;;5064002;28;20398;-76
2021/10/13 08:13:50;;;;;;;26.23;17.90;;;333.10;2329.60;;;;;;5060312;28;20111;-76
2021/10/13 08:16:15;;;;;;;22.23;15.88;;;333.30;2329.60;;;;;;5055295;28;20048;-78
2021/10/13 08:18:41;;;;;;;21.15;16.20;;;333.40;2329.60;;;;;;5079640;28;20032;-79
2021/10/13 08:21:07;;;;;;;22.38;14.48;;;333.60;2329.60;;;;;;5064256;28;20037;-77
2021/10/13 08:23:33;;;;;;;27.42;16.77;;;358.50;2329.60;;;;;;5070090;28;20025;-77
2021/10/13 08:26:00;;;;;;;43.20;15.75;;;358.70;2329.60;;;;;;5058188;28;20479;-78
2021/10/13 08:28:27;;;;;;;22.60;14.50;;;358.90;2329.60;;;;;;5066915;28;20718;-77
2021/10/13 08:30:52;;;;;;;25.05;17.95;;;358.90;2329.60;;;;;;5074155;28;20024;-77
2021/10/13 08:33:18;;;;;;;20.63;14.82;;;359.00;2329.60;;;;;;5053374;28;20040;-75
2021/10/13 08:35:44;;;;;;;27.02;17.63;;;359.00;2329.60;;;;;;5070174;28;20078;-76
2021/10/13 08:38:10;;;;;;;30.55;18.23;;;384.00;2329.60;;;;;;5073263;28;20036;-77
2021/10/13 08:40:35;;;;;;;22.92;16.33;;;384.20;2329.60;;;;;;5048361;28;20123;-77
2021/10/13 08:43:03;;;;;;;23.27;15.32;;;384.40;2329.60;;;;;;5047463;28;20025;-76
2021/10/13 08:45:31;;;;;;;33.75;18.10;;;384.40;2329.60;;;;;;5073498;28;20480;-77
2021/10/13 08:47:57;;;;;;;22.10;14.60;;;384.40;2329.60;;;;;;5047859;28;20024;-77
2021/10/13 08:50:24;;;;;;;25.45;16.55;;;384.70;2329.60;;;;;;5070990;28;20048;-76
2021/10/13 08:53:09;;;;;;;23.50;15.80;;;384.60;2329.60;;;;;;5052952;28;20475;-77
2021/10/13 08:55:38;;;;;;;22.67;13.45;;;384.80;2329.60;;;;;;5075851;28;20105;-76
2021/10/13 08:58:08;;;;;;;20.52;14.45;;;384.60;2329.60;;;;;;5054397;28;20036;-76
2021/10/13 09:00:34;;;;;;;21.95;13.52;;;409.60;2355.20;;;;;;5070009;28;20389;-77
2021/10/13 09:03:01;;;;;;;34.78;22.00;;;409.90;2355.20;;;;;;5056831;28;20028;-76
2021/10/13 09:05:27;;;;;;;18.70;14.45;;;410.50;2355.20;;;;;;5077120;28;20020;-76
2021/10/13 09:07:56;;;;;;;22.13;14.73;;;410.30;2355.20;;;;;;5071797;28;20541;-76
2021/10/13 09:10:36;;;;;;;22.38;13.52;;;435.20;2355.20;;;;;;5053714;28;20048;-77
2021/10/13 09:13:13;;;;;;;19.38;14.98;;;435.50;2355.20;;;;;;5052627;28;20016;-77
2021/10/13 09:15:39;;;;;;;26.88;17.08;;;435.80;2355.20;;;;;;5075455;28;20036;-76
2021/10/13 09:18:08;;;;;;;21.80;14.40;;;435.70;2355.20;;;;;;5052122;28;20032;-77
2021/10/13 09:20:37;;;;;;;16.70;11.27;;;435.30;2355.20;;;;;;5062634;28;20020;-77
2021/10/13 09:23:20;;;;;;;15.93;12.38;;;435.20;2355.20;;;;;;5056804;28;20020;-77
2021/10/13 09:26:06;;;;;;;17.77;12.65;;;435.40;2355.20;;;;;;5051800;28;20506;-78
2021/10/13 09:28:32;;;;;;;15.18;11.82;;;435.70;2355.20;;;;;;5051441;28;20029;-77
2021/10/13 09:31:11;;;;;;;18.45;12.93;;;435.60;2355.20;;;;;;5053928;28;20471;-77
2021/10/13 09:33:37;;;;;;;18.70;13.02;;;435.30;2355.20;;;;;;5050426;28;20033;-77
2021/10/13 09:36:13;;;;;;;16.42;12.55;;;410.40;2355.20;;;;;;5054465;28;20120;-76
2021/10/13 09:38:43;;;;;;;16.98;11.45;;;410.30;2355.20;;;;;;5051287;28;20037;-76
2021/10/13 09:41:09;;;;;;;17.60;13.07;;;435.60;2355.20;;;;;;5057876;28;20025;-76
2021/10/13 09:43:38;;;;;;;27.30;13.10;;;460.80;2380.80;;;;;;5050609;28;20123;-78
2021/10/13 09:46:07;;;;;;;13.57;12.07;;;460.80;2380.80;;;;;;5066585;28;20033;-78
2021/10/13 09:48:36;;;;;;;16.83;14.07;;;460.80;2380.80;;;;;;5052231;28;20072;-77
2021/10/13 09:51:21;;;;;;;20.90;12.90;;;460.80;2380.80;;;;;;5081394;28;20028;-78
2021/10/13 09:53:49;;;;;;;21.83;12.63;;;461.10;2380.80;;;;;;5075769;28;20020;-76
2021/10/13 09:56:35;;;;;;;19.02;13.70;;;460.80;2380.80;;;;;;5055550;28;20035;-76
2021/10/13 09:59:15;;;;;;;18.92;13.20;;;461.00;2380.80;;;;;;5051074;28;20041;-79
2021/10/13 10:01:55;;;;;;;21.80;14.43;;;461.30;2380.80;;;;;;5058255;28;20012;-76
2021/10/13 10:04:24;;;;;;;20.88;11.90;;;461.50;2380.80;;;;;;5056075;28;20024;-75
2021/10/13 10:06:54;;;;;;;16.23;12.52;;;461.70;2380.80;;;;;;5076648;28;20028;-77
2021/10/13 10:09:22;;;;;;;18.45;12.82;;;486.40;2380.80;;;;;;5058384;28;20043;-77
2021/10/13 10:11:50;;;;;;;17.13;12.32;;;486.60;2380.80;;;;;;5049899;28;20033;-77
2021/10/13 10:14:31;;;;;;;15.77;11.73;;;461.60;2380.80;;;;;;5055204;28;20455;-77
2021/10/13 10:16:58;;;;;;;14.88;11.73;;;486.70;2380.80;;;;;;5074651;28;20055;-77
2021/10/13 10:19:26;;;;;;;17.13;11.55;;;486.80;2380.80;;;;;;5056948;28;20033;-77
2021/10/13 10:22:11;;;;;;;16.38;13.15;;;487.20;2380.80;;;;;;5074560;28;20035;-77
2021/10/13 10:24:38;;;;;;;15.40;9.85;;;486.50;2380.80;;;;;;5061700;28;20491;-77
2021/10/13 10:27:23;;;;;;;21.15;11.18;;;461.20;2380.80;;;;;;5075783;28;20032;-77
2021/10/13 10:30:09;;;;;;;23.92;12.20;;;436.00;2355.20;;;;;;5071872;28;20047;-77
2021/10/13 10:32:58;;;;;;;16.35;11.98;;;486.40;2380.80;;;;;;4994608;28;20034;-77
2021/10/13 10:35:25;;;;;;;16.67;10.90;;;486.60;2380.80;;;;;;5007598;28;20030;-78
2021/10/13 10:38:04;;;;;;;17.77;10.55;;;461.30;2380.80;;;;;;4996510;28;20034;-77
2021/10/13 10:40:34;;;;;;;12.63;8.68;;;486.60;2380.80;;;;;;4996573;28;20030;-78
2021/10/13 10:43:20;;;;;;;13.98;9.02;;;487.30;2380.80;;;;;;4996888;28;20035;-77
2021/10/13 10:46:04;;;;;;;14.75;9.23;;;487.10;2380.80;;;;;;4998533;28;20146;-77
2021/10/13 10:48:47;;;;;;;12.68;8.32;;;486.80;2380.80;;;;;;4986240;28;20401;-77
2021/10/13 10:51:14;;;;;;;14.35;9.27;;;461.00;2380.80;;;;;;4997141;28;20113;-77
2021/10/13 10:53:43;;;;;;;16.55;8.98;;;460.80;2380.80;;;;;;4997781;28;20026;-77
2021/10/13 10:56:09;;;;;;;11.73;7.88;;;461.70;2380.80;;;;;;5013070;28;20064;-77
2021/10/13 10:58:35;;;;;;;12.02;8.57;;;486.60;2380.80;;;;;;4997641;28;20034;-77
2021/10/13 11:01:03;;;;;;;8.88;7.20;;;486.60;2380.80;;;;;;4997399;28;20018;-77
2021/10/13 11:03:36;;;;;;;16.67;8.48;;;461.10;2380.80;;;;;;5012646;28;20034;-77
2021/10/13 11:06:22;;;;;;;15.07;7.93;;;460.80;2380.80;;;;;;5006844;28;20716;-77
2021/10/13 11:08:52;;;;;;;14.50;8.15;;;461.00;2380.80;;;;;;5007395;28;20039;-77
2021/10/13 11:11:19;;;;;;;17.58;10.40;;;435.70;2355.20;;;;;;5075590;28;20044;-77
2021/10/13 11:14:06;;;;;;;13.38;9.23;;;435.40;2355.20;;;;;;5060464;28;20145;-77
2021/10/13 11:16:34;;;;;;;12.48;8.57;;;410.50;2355.20;;;;;;5057648;28;20048;-78
2021/10/13 11:19:11;;;;;;;14.95;9.13;;;435.20;2355.20;;;;;;5075862;28;20383;-78
2021/10/13 11:21:38;;;;;;;11.32;8.63;;;435.90;2355.20;;;;;;5058139;28;20050;-78
2021/10/13 11:24:04;;;;;;;14.63;7.50;;;461.10;2380.80;;;;;;5060539;28;20028;-77
2021/10/13 11:26:30;;;;;;;7.88;6.80;;;461.60;2380.80;;;;;;5057645;28;20024;-77
2021/10/13 11:28:56;;;;;;;12.02;7.18;;;461.50;2380.80;;;;;;5058223;28;20479;-77
2021/10/13 11:31:21;;;;;;;13.07;7.28;;;486.70;2380.80;;;;;;5061461;28;20024;-77
2021/10/13 11:33:48;;;;;;;11.20;10.00;;;486.70;2380.80;;;;;;5068033;28;20040;-77
2021/10/13 11:36:14;;;;;;;17.00;11.15;;;461.30;2380.80;;;;;;5069004;28;20048;-77
2021/10/13 11:38:40;;;;;;;12.88;7.65;;;436.10;2355.20;;;;;;5059031;28;20484;-78
2021/10/13 11:41:13;;;;;;;11.68;6.95;;;435.70;2355.20;;;;;;5053530;28;20025;-77
2021/10/13 11:43:40;;;;;;;15.98;9.65;;;435.60;2355.20;;;;;;5058392;28;20127;-76
2021/10/13 11:46:07;;;;;;;11.02;8.70;;;435.20;2355.20;;;;;;5055371;28;20543;-77
2021/10/13 11:48:34;;;;;;;16.98;10.13;;;410.10;2355.20;;;;;;5072878;28;20028;-80
2021/10/13 11:51:07;;;;;;;21.50;11.18;;;409.90;2355.20;;;;;;5072954;28;20040;-79
2021/10/13 11:53:33;;;;;;;14.00;10.75;;;409.80;2355.20;;;;;;5054580;28;20024;-80
2021/10/13 11:56:06;;;;;;;23.10;16.55;;;384.90;2329.60;;;;;;5056651;28;20093;-79
2021/10/13 11:58:32;;;;;;;16.17;14.40;;;384.50;2329.60;;;;;;5054941;28;20032;-79
2021/10/13 12:00:58;;;;;;;15.95;11.73;;;384.20;2329.60;;;;;;5081214;28;20028;-78
2021/10/13 12:03:50;;;;;;;15.13;12.27;;;384.70;2329.60;;;;;;5081532;28;20032;-78
2021/10/13 12:06:16;;;;;;;19.50;14.15;;;384.70;2329.60;;;;;;5057626;28;20045;-79
2021/10/13 12:08:42;;;;;;;12.02;9.18;;;384.70;2329.60;;;;;;5071836;28;20043;-79
2021/10/13 12:11:21;;;;;;;11.77;8.95;;;384.30;2329.60;;;;;;5070935;28;20020;-80
2021/10/13 12:13:49;;;;;;;13.35;8.98;;;384.00;2329.60;;;;;;5063153;28;20035;-81
2021/10/13 12:16:26;;;;;;;17.88;10.80;;;359.10;2329.60;;;;;;5069424;28;20056;-77